createdAt,value
2023-02-21T00:00:57.714Z,73.90
2023-02-21T00:01:58.519Z,73.10
2023-02-21T00:02:59.163Z,76.00
2023-02-21T00:03:59.868Z,73.90
2023-02-21T00:05:00.630Z,75.70
2023-02-21T00:06:01.334Z,79.40
2023-02-21T00:07:02.011Z,78.50
2023-02-21T00:08:02.705Z,77.80
2023-02-21T00:09:03.431Z,80.10
2023-02-21T00:10:04.110Z,82.80
2023-02-21T00:11:04.824Z,76.30
2023-02-21T00:12:05.532Z,76.40
2023-02-21T00:13:06.232Z,83.20
2023-02-21T00:14:06.957Z,76.20
2023-02-21T00:15:07.582Z,80.50
2023-02-21T00:16:08.748Z,83.90
2023-02-21T00:17:08.930Z,78.00
2023-02-21T00:18:09.647Z,77.90
2023-02-21T00:19:10.352Z,89.00
2023-02-21T00:20:11.068Z,84.60
2023-02-21T00:21:12.112Z,84.70
2023-02-21T00:22:12.370Z,70.20
2023-02-21T00:23:13.075Z,83.10
2023-02-21T00:24:13.848Z,83.00
2023-02-21T00:25:14.490Z,90.30
2023-02-21T00:26:15.199Z,80.50
2023-02-21T00:27:15.901Z,80.00
2023-02-21T00:28:16.606Z,79.00
2023-02-21T00:29:17.329Z,84.00
2023-02-21T00:30:17.993Z,84.30
2023-02-21T00:31:18.738Z,87.30
2023-02-21T00:32:19.453Z,86.20
2023-02-21T00:33:20.162Z,88.50
2023-02-21T00:34:20.836Z,88.60
2023-02-21T00:35:21.545Z,88.30
2023-02-21T00:36:22.736Z,85.20
2023-02-21T00:37:22.929Z,84.00
2023-02-21T00:38:26.298Z,90.50
2023-02-21T00:39:24.672Z,89.60
2023-02-21T00:40:25.359Z,88.50
2023-02-21T00:41:26.052Z,89.60
2023-02-21T00:42:26.760Z,81.30
2023-02-21T00:43:27.482Z,91.80
2023-02-21T00:44:28.239Z,91.20
2023-02-21T00:45:28.865Z,91.00
2023-02-21T00:46:29.587Z,89.90
2023-02-21T00:47:30.291Z,92.60
2023-02-21T00:48:31.000Z,88.80
2023-02-21T00:49:31.704Z,88.00
2023-02-21T00:50:32.411Z,96.00
2023-02-21T00:51:33.218Z,99.20
2023-02-21T00:52:33.927Z,94.60
2023-02-21T00:53:34.652Z,96.00
2023-02-21T00:54:35.369Z,95.50
2023-02-21T00:55:36.066Z,96.50
2023-02-21T00:56:37.214Z,97.30
2023-02-21T00:57:37.421Z,98.20
2023-02-21T00:58:38.126Z,95.50
2023-02-21T00:59:38.854Z,99.30
2023-02-21T01:00:39.552Z,97.80
2023-02-21T01:01:40.360Z,96.80
2023-02-21T01:02:41.049Z,97.70
2023-02-21T01:03:41.752Z,102.90
2023-02-21T01:04:42.455Z,96.00
2023-02-21T01:05:43.159Z,100.50
2023-02-21T01:06:43.880Z,110.50
2023-02-21T01:07:44.582Z,105.00
2023-02-21T01:08:45.288Z,102.70
2023-02-21T01:09:46.014Z,100.60
2023-02-21T01:10:46.695Z,103.30
2023-02-21T01:11:47.408Z,113.40
2023-02-21T01:12:48.125Z,104.50
2023-02-21T01:13:48.823Z,103.80
2023-02-21T01:14:49.643Z,108.80
2023-02-21T01:15:50.288Z,115.70
2023-02-21T01:16:50.985Z,112.50
2023-02-21T01:17:51.692Z,108.40
2023-02-21T01:18:53.029Z,110.20
2023-02-21T01:19:53.226Z,107.90
2023-02-21T01:20:53.927Z,109.40
2023-02-21T01:21:54.724Z,117.30
2023-02-21T01:22:55.448Z,118.00
2023-02-21T01:23:56.151Z,112.00
2023-02-21T01:24:56.883Z,116.30
2023-02-21T01:25:57.564Z,126.60
2023-02-21T01:26:58.276Z,118.00
2023-02-21T01:27:58.980Z,120.00
2023-02-21T01:28:59.684Z,121.40
2023-02-21T01:30:00.515Z,121.50
2023-02-21T01:31:01.165Z,118.00
2023-02-21T01:32:02.316Z,114.60
2023-02-21T01:33:02.443Z,135.10
2023-02-21T01:34:03.155Z,117.50
2023-02-21T01:35:03.858Z,126.20
2023-02-21T01:36:04.569Z,125.00
2023-02-21T01:37:05.725Z,129.60
2023-02-21T01:38:05.937Z,124.10
2023-02-21T01:39:06.649Z,126.60
2023-02-21T01:40:07.369Z,127.90
2023-02-21T01:41:08.057Z,125.60
2023-02-21T01:42:09.230Z,127.20
2023-02-21T01:43:09.433Z,134.50
2023-02-21T01:44:10.141Z,127.90
2023-02-21T01:45:10.967Z,125.40
2023-02-21T01:46:11.835Z,127.00
2023-02-21T01:47:12.740Z,135.20
2023-02-21T01:48:13.438Z,133.90
2023-02-21T01:49:14.146Z,132.70
2023-02-21T01:50:14.851Z,127.30
2023-02-21T01:51:16.017Z,137.60
2023-02-21T01:52:16.729Z,129.10
2023-02-21T01:53:16.929Z,139.40
2023-02-21T01:54:17.643Z,132.80
2023-02-21T01:55:18.370Z,132.70
2023-02-21T01:56:19.051Z,142.20
2023-02-21T01:57:20.225Z,145.00
2023-02-21T01:58:20.429Z,139.30
2023-02-21T01:59:21.133Z,138.40
2023-02-21T02:00:21.954Z,147.00
2023-02-21T02:01:22.595Z,148.30
2023-02-21T02:02:23.291Z,145.20
2023-02-21T02:03:23.997Z,139.90
2023-02-21T02:04:24.740Z,145.40
2023-02-21T02:05:25.404Z,148.80
2023-02-21T02:06:26.107Z,150.60
2023-02-21T02:07:27.230Z,155.90
2023-02-21T02:08:27.438Z,160.60
2023-02-21T02:09:28.150Z,143.70
2023-02-21T02:10:28.870Z,157.50
2023-02-21T02:11:29.565Z,161.40
2023-02-21T02:12:30.726Z,157.40
2023-02-21T02:13:30.960Z,156.60
2023-02-21T02:14:31.665Z,173.70
2023-02-21T02:15:32.447Z,166.20
2023-02-21T02:16:33.099Z,167.60
2023-02-21T02:17:33.830Z,167.20
2023-02-21T02:18:34.533Z,163.80
2023-02-21T02:19:35.284Z,173.40
2023-02-21T02:20:35.950Z,174.30
2023-02-21T02:21:36.659Z,169.00
2023-02-21T02:22:37.371Z,171.50
2023-02-21T02:23:38.077Z,180.00
2023-02-21T02:24:38.781Z,192.90
2023-02-21T02:25:39.532Z,196.40
2023-02-21T02:26:40.201Z,191.10
2023-02-21T02:27:41.227Z,197.60
2023-02-21T02:28:41.439Z,199.80
2023-02-21T02:29:42.145Z,211.50
2023-02-21T02:30:42.954Z,212.80
2023-02-21T02:31:43.703Z,226.90
2023-02-21T02:32:44.409Z,228.70
2023-02-21T02:33:45.132Z,225.60
2023-02-21T02:34:45.863Z,236.30
2023-02-21T02:35:46.565Z,249.50
2023-02-21T02:36:47.266Z,256.70
2023-02-21T02:37:48.228Z,259.20
2023-02-21T02:38:48.937Z,277.80
2023-02-21T02:39:49.646Z,263.40
2023-02-21T02:40:50.386Z,258.60
2023-02-21T02:41:51.056Z,292.50
2023-02-21T02:42:51.775Z,277.50
2023-02-21T02:43:52.478Z,295.40
2023-02-21T02:44:53.185Z,292.00
2023-02-21T02:45:53.966Z,311.40
2023-02-21T02:46:54.634Z,296.20
2023-02-21T02:47:55.359Z,309.30
2023-02-21T02:48:56.061Z,308.90
2023-02-21T02:49:56.766Z,307.60
2023-02-21T02:50:57.481Z,318.40
2023-02-21T02:51:58.186Z,298.30
2023-02-21T02:52:59.231Z,303.70
2023-02-21T02:53:59.434Z,313.00
2023-02-21T02:55:00.168Z,321.40
2023-02-21T02:56:00.880Z,321.00
2023-02-21T02:57:01.551Z,328.60
2023-02-21T02:58:02.264Z,334.90
2023-02-21T02:59:02.968Z,329.00
2023-02-21T03:00:03.681Z,310.30
2023-02-21T03:01:04.400Z,332.70
2023-02-21T03:02:05.043Z,331.20
2023-02-21T03:03:06.240Z,326.70
2023-02-21T03:04:06.656Z,328.20
2023-02-21T03:05:07.356Z,322.00
2023-02-21T03:06:08.058Z,344.50
2023-02-21T03:07:08.764Z,339.30
2023-02-21T03:08:09.738Z,326.60
2023-02-21T03:09:10.440Z,310.70
2023-02-21T03:10:11.152Z,326.90
2023-02-21T03:11:12.088Z,334.40
2023-02-21T03:12:12.399Z,323.90
2023-02-21T03:13:13.109Z,332.40
2023-02-21T03:14:13.815Z,346.90
2023-02-21T03:15:14.520Z,327.50
2023-02-21T03:16:15.359Z,340.80
2023-02-21T03:17:16.041Z,341.80
2023-02-21T03:18:17.235Z,337.30
2023-02-21T03:19:17.457Z,338.00
2023-02-21T03:20:18.160Z,313.50
2023-02-21T03:21:18.861Z,308.50
2023-02-21T03:22:19.576Z,300.40
2023-02-21T03:23:20.728Z,294.70
2023-02-21T03:24:20.942Z,277.60
2023-02-21T03:25:21.658Z,276.10
2023-02-21T03:26:22.373Z,267.70
2023-02-21T03:27:23.063Z,280.40
2023-02-21T03:28:23.767Z,258.10
2023-02-21T03:29:24.483Z,249.70
2023-02-21T03:30:25.275Z,247.00
2023-02-21T03:31:25.970Z,238.90
2023-02-21T03:32:26.589Z,242.60
2023-02-21T03:33:27.310Z,242.40
2023-02-21T03:34:28.017Z,222.30
2023-02-21T03:35:28.723Z,220.80
2023-02-21T03:36:29.426Z,228.20
2023-02-21T03:37:30.129Z,214.70
2023-02-21T03:38:31.226Z,210.80
2023-02-21T03:39:31.453Z,213.50
2023-02-21T03:40:32.136Z,205.80
2023-02-21T03:41:32.868Z,207.00
2023-02-21T03:42:33.545Z,207.90
2023-02-21T03:43:34.728Z,203.20
2023-02-21T03:44:34.939Z,189.10
2023-02-21T03:45:35.646Z,197.40
2023-02-21T03:46:36.471Z,194.70
2023-02-21T03:47:36.903Z,197.70
2023-02-21T03:48:37.616Z,186.40
2023-02-21T03:49:38.318Z,190.80
2023-02-21T03:50:39.034Z,185.20
2023-02-21T03:51:39.741Z,176.00
2023-02-21T03:52:40.441Z,179.50
2023-02-21T03:53:41.153Z,182.50
2023-02-21T03:54:41.858Z,182.20
2023-02-21T03:55:42.564Z,175.90
2023-02-21T03:56:43.287Z,174.40
2023-02-21T03:57:43.975Z,169.30
2023-02-21T03:58:44.732Z,172.10
2023-02-21T03:59:45.436Z,169.60
2023-02-21T04:00:46.164Z,171.80
2023-02-21T04:01:46.981Z,166.60
2023-02-21T04:02:47.617Z,172.90
2023-02-21T04:03:48.339Z,178.00
2023-02-21T04:04:49.059Z,175.60
2023-02-21T04:05:49.741Z,168.90
2023-02-21T04:06:50.454Z,165.90
2023-02-21T04:07:51.161Z,161.20
2023-02-21T04:08:52.352Z,155.70
2023-02-21T04:09:52.557Z,163.40
2023-02-21T04:10:53.272Z,168.20
2023-02-21T04:11:53.997Z,152.00
2023-02-21T04:12:54.675Z,161.40
2023-02-21T04:13:55.740Z,159.20
2023-02-21T04:14:55.944Z,162.10
2023-02-21T04:15:56.686Z,166.70
2023-02-21T04:16:57.464Z,161.80
2023-02-21T04:17:58.095Z,162.80
2023-02-21T04:18:58.819Z,166.40
2023-02-21T04:19:59.524Z,155.40
2023-02-21T04:21:00.245Z,163.00
2023-02-21T04:22:00.936Z,168.80
2023-02-21T04:23:03.828Z,155.50
2023-02-21T04:24:02.613Z,155.00
2023-02-21T04:25:03.323Z,161.10
2023-02-21T04:26:04.019Z,158.80
2023-02-21T04:27:04.747Z,159.80
2023-02-21T04:28:05.429Z,153.30
2023-02-21T04:29:06.144Z,155.60
2023-02-21T04:30:06.896Z,157.10
2023-02-21T04:31:07.552Z,161.80
2023-02-21T04:32:08.390Z,155.90
2023-02-21T04:33:09.093Z,156.10
2023-02-21T04:34:12.365Z,166.30
2023-02-21T04:35:10.610Z,162.60
2023-02-21T04:36:11.325Z,163.20
2023-02-21T04:37:12.023Z,176.50
2023-02-21T04:38:12.730Z,173.60
2023-02-21T04:39:13.740Z,174.20
2023-02-21T04:40:13.967Z,181.30
2023-02-21T04:41:15.084Z,174.10
2023-02-21T04:42:15.407Z,180.20
2023-02-21T04:43:16.092Z,186.40
2023-02-21T04:44:16.809Z,195.10
2023-02-21T04:45:17.514Z,198.10
2023-02-21T04:46:18.223Z,207.90
2023-02-21T04:47:19.038Z,223.80
2023-02-21T04:48:19.666Z,225.60
2023-02-21T04:49:20.384Z,229.50
2023-02-21T04:50:21.096Z,243.20
2023-02-21T04:51:22.212Z,282.40
2023-02-21T04:52:22.597Z,289.10
2023-02-21T04:53:23.305Z,327.80
2023-02-21T04:54:24.018Z,342.80
2023-02-21T04:55:24.722Z,367.10
2023-02-21T04:56:25.463Z,392.80
2023-02-21T04:57:26.178Z,423.80
2023-02-21T04:58:29.087Z,445.90
2023-02-21T04:59:27.766Z,432.90
2023-02-21T05:00:28.470Z,465.00
2023-02-21T05:01:29.301Z,453.90
2023-02-21T05:02:30.018Z,480.10
2023-02-21T05:03:30.668Z,480.60
2023-02-21T05:04:31.462Z,487.80
2023-02-21T05:05:32.156Z,502.60
2023-02-21T05:06:32.864Z,515.10
2023-02-21T05:07:33.568Z,477.80
2023-02-21T05:08:34.270Z,487.60
2023-02-21T05:09:34.980Z,484.90
2023-02-21T05:10:45.220Z,497.20
2023-02-21T05:11:37.306Z,502.30
2023-02-21T05:12:37.030Z,517.70
2023-02-21T05:13:37.723Z,513.80
2023-02-21T05:14:38.427Z,519.10
2023-02-21T05:15:39.138Z,535.20
2023-02-21T05:16:39.936Z,514.30
2023-02-21T05:17:40.706Z,526.90
2023-02-21T05:18:41.324Z,519.90
2023-02-21T05:19:42.047Z,513.30
2023-02-21T05:20:42.756Z,515.50
2023-02-21T05:21:43.462Z,510.10
2023-02-21T05:22:44.165Z,517.30
2023-02-21T05:23:44.871Z,517.00
2023-02-21T05:24:45.586Z,527.60
2023-02-21T05:25:46.292Z,523.50
2023-02-21T05:26:46.995Z,496.30
2023-02-21T05:27:47.718Z,514.80
2023-02-21T05:28:48.407Z,516.50
2023-02-21T05:29:49.122Z,544.10
2023-02-21T05:30:49.996Z,511.50
2023-02-21T05:31:50.705Z,498.40
2023-02-21T05:32:51.494Z,515.80
2023-02-21T05:33:52.140Z,492.60
2023-02-21T05:34:52.893Z,490.90
2023-02-21T05:35:53.556Z,499.30
2023-02-21T05:36:54.263Z,522.70
2023-02-21T05:37:54.974Z,507.60
2023-02-21T05:38:55.901Z,510.10
2023-02-21T05:39:56.651Z,484.20
2023-02-21T05:40:57.376Z,488.10
2023-02-21T05:42:19.121Z,499.70
2023-02-21T05:43:30.113Z,502.90
2023-02-21T05:44:00.605Z,503.10
2023-02-21T05:45:00.311Z,521.10
2023-02-21T05:46:01.054Z,516.60
2023-02-21T05:47:01.754Z,516.70
2023-02-21T05:48:02.483Z,527.10
2023-02-21T05:49:03.151Z,522.50
2023-02-21T05:50:04.262Z,489.50
2023-02-21T05:51:04.465Z,504.60
2023-02-21T05:52:05.177Z,505.10
2023-02-21T05:53:05.876Z,484.00
2023-02-21T05:54:06.587Z,489.20
2023-02-21T05:55:07.308Z,496.20
2023-02-21T05:56:10.411Z,487.30
2023-02-21T05:57:08.682Z,513.50
2023-02-21T05:58:09.384Z,502.00
2023-02-21T05:59:10.111Z,487.90
2023-02-21T06:00:11.246Z,490.70
2023-02-21T06:01:11.453Z,494.00
2023-02-21T06:02:12.189Z,517.00
2023-02-21T06:03:12.956Z,489.40
2023-02-21T06:04:13.681Z,492.30
2023-02-21T06:05:14.399Z,503.30
2023-02-21T06:06:15.094Z,505.10
2023-02-21T06:07:15.815Z,477.00
2023-02-21T06:08:16.511Z,492.70
2023-02-21T06:09:17.211Z,498.30
2023-02-21T06:10:17.928Z,492.90
2023-02-21T06:11:18.647Z,496.90
2023-02-21T06:12:19.349Z,497.80
2023-02-21T06:13:20.058Z,483.10
2023-02-21T06:14:20.766Z,494.90
2023-02-21T06:15:21.469Z,493.50
2023-02-21T06:16:22.203Z,514.20
2023-02-21T06:17:22.925Z,500.90
2023-02-21T06:18:23.651Z,483.30
2023-02-21T06:19:24.282Z,503.70
2023-02-21T06:20:25.244Z,524.70
2023-02-21T06:21:25.948Z,502.50
2023-02-21T06:22:26.653Z,535.10
2023-02-21T06:23:27.358Z,519.80
2023-02-21T06:24:28.069Z,521.10
2023-02-21T06:25:28.779Z,517.00
2023-02-21T06:26:29.493Z,480.80
2023-02-21T06:27:30.198Z,501.90
2023-02-21T06:28:30.908Z,519.90
2023-02-21T06:29:31.634Z,550.10
2023-02-21T06:30:32.769Z,534.70
2023-02-21T06:31:32.992Z,519.10
2023-02-21T06:32:33.679Z,501.80
2023-02-21T06:33:34.400Z,518.40
2023-02-21T06:34:35.037Z,518.00
2023-02-21T06:35:35.780Z,531.20
2023-02-21T06:36:36.484Z,533.70
2023-02-21T06:37:37.194Z,530.60
2023-02-21T06:38:37.902Z,531.70
2023-02-21T06:39:38.620Z,524.70
2023-02-21T06:40:39.753Z,526.50
2023-02-21T06:41:39.966Z,503.50
2023-02-21T06:42:40.671Z,510.30
2023-02-21T06:43:41.385Z,532.60
2023-02-21T06:44:42.107Z,526.70
2023-02-21T06:45:42.798Z,535.10
2023-02-21T06:46:43.512Z,519.50
2023-02-21T06:47:44.215Z,529.00
2023-02-21T06:48:44.938Z,523.20
2023-02-21T06:49:45.578Z,530.00
2023-02-21T06:50:46.811Z,521.50
2023-02-21T06:51:47.018Z,523.20
2023-02-21T06:52:47.725Z,521.00
2023-02-21T06:53:48.433Z,506.70
2023-02-21T06:54:49.139Z,513.80
2023-02-21T06:55:50.269Z,498.40
2023-02-21T06:56:50.494Z,509.00
2023-02-21T06:57:51.171Z,526.80
2023-02-21T06:58:51.887Z,525.00
2023-02-21T06:59:52.600Z,512.30
2023-02-21T07:00:53.760Z,520.80
2023-02-21T07:01:54.069Z,498.30
2023-02-21T07:02:54.707Z,499.40
2023-02-21T07:03:55.438Z,517.30
2023-02-21T07:04:56.190Z,521.30
2023-02-21T07:05:57.280Z,524.80
2023-02-21T07:06:57.468Z,511.30
2023-02-21T07:07:58.168Z,535.00
2023-02-21T07:08:58.873Z,505.40
2023-02-21T07:09:59.580Z,519.10
2023-02-21T07:11:00.767Z,532.00
2023-02-21T07:12:00.958Z,501.30
2023-02-21T07:13:01.680Z,515.20
2023-02-21T07:14:02.380Z,524.60
2023-02-21T07:15:03.122Z,496.30
2023-02-21T07:16:04.295Z,514.70
2023-02-21T07:17:04.460Z,506.00
2023-02-21T07:18:05.180Z,497.70
2023-02-21T07:19:06.012Z,485.40
2023-02-21T07:20:06.639Z,488.70
2023-02-21T07:21:07.754Z,475.70
2023-02-21T07:22:07.964Z,488.90
2023-02-21T07:23:08.671Z,476.80
2023-02-21T07:24:09.371Z,496.20
2023-02-21T07:25:10.076Z,488.50
2023-02-21T07:26:11.252Z,476.30
2023-02-21T07:27:11.459Z,480.90
2023-02-21T07:28:12.160Z,483.20
2023-02-21T07:29:12.905Z,470.00
2023-02-21T07:30:13.676Z,462.80
2023-02-21T07:31:16.143Z,460.40
2023-02-21T07:32:15.226Z,451.20
2023-02-21T07:33:15.874Z,446.30
2023-02-21T07:34:16.653Z,454.70
2023-02-21T07:35:17.294Z,442.80
2023-02-21T07:36:18.283Z,440.90
2023-02-21T07:37:18.980Z,435.20
2023-02-21T07:38:19.699Z,428.80
2023-02-21T07:39:20.407Z,424.90
2023-02-21T07:40:21.136Z,422.50
2023-02-21T07:41:22.262Z,426.50
2023-02-21T07:42:22.467Z,419.30
2023-02-21T07:43:23.174Z,402.20
2023-02-21T07:44:23.885Z,411.40
2023-02-21T07:45:24.620Z,402.30
2023-02-21T07:46:25.459Z,403.90
2023-02-21T07:47:26.103Z,405.50
2023-02-21T07:48:26.810Z,395.40
2023-02-21T07:49:27.537Z,396.30
2023-02-21T07:50:28.165Z,389.40
2023-02-21T07:51:28.898Z,388.70
2023-02-21T07:52:29.593Z,394.40
2023-02-21T07:53:30.305Z,397.30
2023-02-21T07:54:31.012Z,386.90
2023-02-21T07:55:31.719Z,386.50
2023-02-21T07:56:32.779Z,388.40
2023-02-21T07:57:32.991Z,383.50
2023-02-21T07:58:33.695Z,386.00
2023-02-21T07:59:34.398Z,383.00
2023-02-21T08:00:35.979Z,376.70
2023-02-21T08:01:35.932Z,379.50
2023-02-21T08:02:36.618Z,387.60
2023-02-21T08:03:37.322Z,370.50
2023-02-21T08:04:38.166Z,363.70
2023-02-21T08:05:38.809Z,351.80
2023-02-21T08:06:39.765Z,373.40
2023-02-21T08:07:40.465Z,382.90
2023-02-21T08:08:41.169Z,370.10
2023-02-21T08:09:41.880Z,357.40
2023-02-21T08:10:42.582Z,369.70
2023-02-21T08:11:43.759Z,343.60
2023-02-21T08:12:43.964Z,370.20
2023-02-21T08:13:44.674Z,347.90
2023-02-21T08:14:45.379Z,353.00
2023-02-21T08:15:46.207Z,357.10
2023-02-21T08:16:47.262Z,350.60
2023-02-21T08:17:47.466Z,342.40
2023-02-21T08:18:48.177Z,329.20
2023-02-21T08:19:49.060Z,339.30
2023-02-21T08:20:49.694Z,358.80
2023-02-21T08:21:50.766Z,349.20
2023-02-21T08:22:50.975Z,363.80
2023-02-21T08:23:51.675Z,379.70
2023-02-21T08:24:52.422Z,360.90
2023-02-21T08:25:53.131Z,345.30
2023-02-21T08:26:53.845Z,350.40
2023-02-21T08:27:54.548Z,360.30
2023-02-21T08:28:55.252Z,356.00
2023-02-21T08:29:55.965Z,357.10
2023-02-21T08:30:56.681Z,329.90
2023-02-21T08:31:57.804Z,327.00
2023-02-21T08:32:57.962Z,349.60
2023-02-21T08:33:58.670Z,332.30
2023-02-21T08:34:59.384Z,336.20
2023-02-21T08:36:00.034Z,328.80
2023-02-21T08:37:00.767Z,329.30
2023-02-21T08:38:01.474Z,349.40
2023-02-21T08:39:02.187Z,354.40
2023-02-21T08:40:02.888Z,364.60
2023-02-21T08:41:03.593Z,359.00
2023-02-21T08:42:04.321Z,360.10
2023-02-21T08:43:05.018Z,377.00
2023-02-21T08:44:05.740Z,360.30
2023-02-21T08:45:06.471Z,341.50
2023-02-21T08:46:07.200Z,357.20
2023-02-21T08:47:07.893Z,356.00
2023-02-21T08:48:08.596Z,329.90
2023-02-21T08:49:09.313Z,334.70
2023-02-21T08:50:10.283Z,323.60
2023-02-21T08:51:10.918Z,340.30
2023-02-21T08:52:11.629Z,343.20
2023-02-21T08:53:14.952Z,342.00
2023-02-21T08:54:12.878Z,346.50
2023-02-21T08:55:13.584Z,348.60
2023-02-21T08:56:14.292Z,341.90
2023-02-21T08:57:15.015Z,349.90
2023-02-21T08:58:15.710Z,352.00
2023-02-21T08:59:16.471Z,341.60
2023-02-21T09:00:17.130Z,335.50
2023-02-21T09:01:18.315Z,354.30
2023-02-21T09:02:18.709Z,359.20
2023-02-21T09:03:19.364Z,361.00
2023-02-21T09:04:20.065Z,337.70
2023-02-21T09:05:20.793Z,347.60
2023-02-21T09:06:21.427Z,324.00
2023-02-21T09:07:22.144Z,347.60
2023-02-21T09:08:22.865Z,341.10
2023-02-21T09:09:23.570Z,342.60
2023-02-21T09:10:24.282Z,350.90
2023-02-21T09:11:24.985Z,322.90
2023-02-21T09:12:25.768Z,320.70
2023-02-21T09:13:26.471Z,320.20
2023-02-21T09:14:27.181Z,317.70
2023-02-21T09:15:27.896Z,297.40
2023-02-21T09:16:28.670Z,289.80
2023-02-21T09:17:29.764Z,278.70
2023-02-21T09:18:29.968Z,282.60
2023-02-21T09:19:30.703Z,290.70
2023-02-21T09:20:31.423Z,285.30
2023-02-21T09:21:32.108Z,286.10
2023-02-21T09:22:33.271Z,302.90
2023-02-21T09:23:33.479Z,299.40
2023-02-21T09:24:34.179Z,301.20
2023-02-21T09:25:34.902Z,299.60
2023-02-21T09:26:35.588Z,292.30
2023-02-21T09:27:36.768Z,277.20
2023-02-21T09:28:36.969Z,265.70
2023-02-21T09:29:46.016Z,279.70
2023-02-21T09:30:39.397Z,267.90
2023-02-21T09:31:39.115Z,254.00
2023-02-21T09:32:39.881Z,257.70
2023-02-21T09:33:40.543Z,237.40
2023-02-21T09:34:41.251Z,255.00
2023-02-21T09:35:41.981Z,240.60
2023-02-21T09:36:42.625Z,237.60
2023-02-21T09:37:43.779Z,241.20
2023-02-21T09:38:43.983Z,258.90
2023-02-21T09:39:44.689Z,236.10
2023-02-21T09:40:45.398Z,264.80
2023-02-21T09:41:46.098Z,254.00
2023-02-21T09:42:46.820Z,273.80
2023-02-21T09:43:47.520Z,259.00
2023-02-21T09:44:48.224Z,247.00
2023-02-21T09:45:48.963Z,254.50
2023-02-21T09:46:49.666Z,247.50
2023-02-21T09:47:50.774Z,241.90
2023-02-21T09:48:50.979Z,257.10
2023-02-21T09:49:51.688Z,254.30
2023-02-21T09:50:52.409Z,254.20
2023-02-21T09:51:53.043Z,259.30
2023-02-21T09:52:53.767Z,254.60
2023-02-21T09:53:54.473Z,254.40
2023-02-21T09:54:55.184Z,260.30
2023-02-21T09:55:55.905Z,259.30
2023-02-21T09:56:56.609Z,255.10
2023-02-21T09:57:57.321Z,267.60
2023-02-21T09:58:58.024Z,242.50
2023-02-21T09:59:58.730Z,233.40
2023-02-21T10:00:59.495Z,244.10
2023-02-21T10:02:00.284Z,241.90
2023-02-21T10:03:01.269Z,235.90
2023-02-21T10:04:01.480Z,238.10
2023-02-21T10:05:02.238Z,237.40
2023-02-21T10:06:05.181Z,235.60
2023-02-21T10:07:03.704Z,249.10
2023-02-21T10:08:04.417Z,218.10
2023-02-21T10:09:05.127Z,218.70
2023-02-21T10:10:05.827Z,217.60
2023-02-21T10:11:06.543Z,235.10
2023-02-21T10:12:07.249Z,237.60
2023-02-21T10:13:08.265Z,236.50
2023-02-21T10:14:08.470Z,225.40
2023-02-21T10:15:09.191Z,233.50
2023-02-21T10:16:09.947Z,227.00
2023-02-21T10:17:10.627Z,225.90
2023-02-21T10:18:11.324Z,219.30
2023-02-21T10:19:12.029Z,210.20
2023-02-21T10:20:12.738Z,228.50
2023-02-21T10:21:13.707Z,245.00
2023-02-21T10:22:13.955Z,242.20
2023-02-21T10:23:14.670Z,232.80
2023-02-21T10:24:15.373Z,238.30
2023-02-21T10:25:16.087Z,227.30
2023-02-21T10:26:16.792Z,234.20
2023-02-21T10:27:17.497Z,242.20
2023-02-21T10:28:18.280Z,234.40
2023-02-21T10:29:18.974Z,236.90
2023-02-21T10:30:19.752Z,246.30
2023-02-21T10:31:20.543Z,242.10
2023-02-21T10:32:21.222Z,252.10
2023-02-21T10:33:21.914Z,270.50
2023-02-21T10:34:22.619Z,242.20
2023-02-21T10:35:23.327Z,241.30
2023-02-21T10:36:24.052Z,253.70
2023-02-21T10:37:24.796Z,253.60
2023-02-21T10:38:25.786Z,248.90
2023-02-21T10:39:25.989Z,245.20
2023-02-21T10:40:26.689Z,237.80
2023-02-21T10:41:27.397Z,232.20
2023-02-21T10:42:28.108Z,234.30
2023-02-21T10:43:29.268Z,226.30
2023-02-21T10:44:29.473Z,218.20
2023-02-21T10:45:30.181Z,242.00
2023-02-21T10:46:30.889Z,217.50
2023-02-21T10:47:31.634Z,215.10
2023-02-21T10:48:32.776Z,204.90
2023-02-21T10:49:32.982Z,192.10
2023-02-21T10:50:33.683Z,205.80
2023-02-21T10:51:34.409Z,202.90
2023-02-21T10:52:36.542Z,198.20
2023-02-21T10:53:35.750Z,193.00
2023-02-21T10:54:36.436Z,218.60
2023-02-21T10:55:37.133Z,210.30
2023-02-21T10:56:37.850Z,194.90
2023-02-21T10:57:38.558Z,186.10
2023-02-21T10:58:39.772Z,187.80
2023-02-21T10:59:39.978Z,195.50
2023-02-21T11:00:40.789Z,161.00
2023-02-21T11:01:41.594Z,165.50
2023-02-21T11:02:42.396Z,177.90
2023-02-21T11:03:43.065Z,189.10
2023-02-21T11:04:43.757Z,183.60
2023-02-21T11:05:44.466Z,170.80
2023-02-21T11:06:45.331Z,179.50
2023-02-21T11:07:45.963Z,163.70
2023-02-21T11:08:46.676Z,165.20
2023-02-21T11:09:47.394Z,159.00
2023-02-21T11:10:48.102Z,151.60
2023-02-21T11:11:48.801Z,144.50
2023-02-21T11:12:49.520Z,146.40
2023-02-21T11:13:50.269Z,149.00
2023-02-21T11:14:50.974Z,155.70
2023-02-21T11:15:51.699Z,158.40
2023-02-21T11:16:52.393Z,157.10
2023-02-21T11:17:53.110Z,149.50
2023-02-21T11:18:54.281Z,136.60
2023-02-21T11:19:54.506Z,132.20
2023-02-21T11:20:55.189Z,132.60
2023-02-21T11:21:55.943Z,144.00
2023-02-21T11:22:56.567Z,127.90
2023-02-21T11:23:57.305Z,129.20
2023-02-21T11:24:57.997Z,124.90
2023-02-21T11:25:58.700Z,128.70
2023-02-21T11:26:59.408Z,124.20
2023-02-21T11:28:00.130Z,119.30
2023-02-21T11:29:01.273Z,122.80
2023-02-21T11:30:01.476Z,123.50
2023-02-21T11:31:02.251Z,110.80
2023-02-21T11:32:02.967Z,132.80
2023-02-21T11:33:03.727Z,116.60
2023-02-21T11:34:04.776Z,125.70
2023-02-21T11:35:04.978Z,118.40
2023-02-21T11:36:05.686Z,128.80
2023-02-21T11:37:06.414Z,127.40
2023-02-21T11:38:07.244Z,111.40
2023-02-21T11:39:08.295Z,106.30
2023-02-21T11:40:08.494Z,111.00
2023-02-21T11:41:09.199Z,101.20
2023-02-21T11:42:09.899Z,117.60
2023-02-21T11:43:10.637Z,119.70
2023-02-21T11:44:11.346Z,114.10
2023-02-21T11:45:12.055Z,102.30
2023-02-21T11:46:12.862Z,121.10
2023-02-21T11:47:13.624Z,114.30
2023-02-21T11:48:14.357Z,123.10
2023-02-21T11:49:15.286Z,126.70
2023-02-21T11:50:15.983Z,108.70
2023-02-21T11:51:16.961Z,112.40
2023-02-21T11:52:17.247Z,112.70
2023-02-21T11:53:17.897Z,109.50
2023-02-21T11:54:18.785Z,109.60
2023-02-21T11:55:19.703Z,109.40
2023-02-21T11:56:20.373Z,103.50
2023-02-21T11:57:21.076Z,107.70
2023-02-21T11:58:21.780Z,89.30
2023-02-21T11:59:22.782Z,98.10
2023-02-21T12:00:23.006Z,90.10
2023-02-21T12:01:23.702Z,101.60
2023-02-21T12:02:24.447Z,102.80
2023-02-21T12:03:25.131Z,106.80
2023-02-21T12:04:25.822Z,104.70
2023-02-21T12:05:26.527Z,97.10
2023-02-21T12:06:27.229Z,91.70
2023-02-21T12:07:27.952Z,103.60
2023-02-21T12:08:28.644Z,91.70
2023-02-21T12:09:29.356Z,96.10
2023-02-21T12:10:30.073Z,87.80
2023-02-21T12:11:30.781Z,81.60
2023-02-21T12:12:31.503Z,78.50
2023-02-21T12:13:32.197Z,76.70
2023-02-21T12:14:33.281Z,80.40
2023-02-21T12:15:33.533Z,75.60
2023-02-21T12:16:34.195Z,74.20
2023-02-21T12:17:34.906Z,72.10
2023-02-21T12:18:35.631Z,63.90
2023-02-21T12:19:36.775Z,67.80
2023-02-21T12:20:36.983Z,63.20
2023-02-21T12:21:37.687Z,65.40
2023-02-21T12:22:39.588Z,69.40
2023-02-21T12:23:39.064Z,59.40
2023-02-21T12:24:39.778Z,57.00
2023-02-21T12:25:40.485Z,62.10
2023-02-21T12:26:41.193Z,58.20
2023-02-21T12:27:41.910Z,53.60
2023-02-21T12:28:42.618Z,52.60
2023-02-21T12:29:43.782Z,58.10
2023-02-21T12:30:44.063Z,51.60
2023-02-21T12:31:44.875Z,50.20
2023-02-21T12:32:45.539Z,54.90
2023-02-21T12:33:46.248Z,53.00
2023-02-21T12:34:46.944Z,53.80
2023-02-21T12:35:47.678Z,51.70
2023-02-21T12:36:48.357Z,50.00
2023-02-21T12:37:49.079Z,54.70
2023-02-21T12:38:49.715Z,54.10
2023-02-21T12:39:50.443Z,50.30
2023-02-21T12:40:51.150Z,49.80